createdAt,value
2023-04-15T00:02:14.890Z,4.78
2023-04-15T00:07:18.075Z,3.08
2023-04-15T00:12:21.870Z,6.05
2023-04-15T00:17:24.768Z,4.57
2023-04-15T00:22:27.784Z,3.78
2023-04-15T00:27:30.680Z,3.70
2023-04-15T00:32:33.306Z,2.88
2023-04-15T00:37:36.977Z,3.90
2023-04-15T00:42:39.917Z,4.13
2023-04-15T00:47:43.905Z,3.55
2023-04-15T00:52:46.742Z,5.25
2023-04-15T00:57:49.482Z,1.95
2023-04-15T01:02:52.397Z,5.32
2023-04-15T01:07:56.244Z,6.07
2023-04-15T01:12:58.823Z,6.70
2023-04-15T01:18:03.356Z,3.70
2023-04-15T01:23:06.332Z,4.53
2023-04-15T01:28:09.930Z,2.80
2023-04-15T01:33:12.806Z,3.63
2023-04-15T01:38:33.930Z,4.20
2023-04-15T01:43:37.402Z,5.82
2023-04-15T01:48:41.400Z,5.15
2023-04-15T01:53:45.653Z,4.40
2023-04-15T01:58:49.675Z,3.30
2023-04-15T02:03:53.995Z,4.40
2023-04-15T02:08:59.195Z,4.57
2023-04-15T02:14:05.945Z,4.45
2023-04-15T02:19:10.043Z,8.70
2023-04-15T02:24:14.809Z,6.28
2023-04-15T02:29:18.793Z,4.18
2023-04-15T02:34:22.816Z,5.32
2023-04-15T02:39:27.448Z,3.50
2023-04-15T02:44:32.781Z,7.03
2023-04-15T02:49:40.254Z,8.85
2023-04-15T02:54:44.106Z,7.05
2023-04-15T02:59:48.040Z,3.67
2023-04-15T03:04:52.342Z,6.65
2023-04-15T03:09:57.070Z,5.78
2023-04-15T03:15:02.253Z,6.32
2023-04-15T03:20:12.965Z,6.33
2023-04-15T03:25:17.124Z,2.78
2023-04-15T03:30:21.704Z,4.30
2023-04-15T03:35:25.847Z,4.47
2023-04-15T03:40:29.911Z,7.40
2023-04-15T03:45:33.875Z,4.80
2023-04-15T03:50:37.779Z,4.97
2023-04-15T03:55:42.002Z,4.05
2023-04-15T04:00:45.933Z,8.65
2023-04-15T04:05:50.015Z,5.47
2023-04-15T04:10:53.978Z,9.23
2023-04-15T04:15:58.136Z,6.40
2023-04-15T04:21:02.189Z,6.22
2023-04-15T04:26:06.276Z,8.82
2023-04-15T04:31:10.234Z,6.50
2023-04-15T04:36:14.229Z,3.58
2023-04-15T04:41:18.356Z,5.80
2023-04-15T04:46:22.313Z,3.85
2023-04-15T04:51:26.520Z,4.57
2023-04-15T04:56:30.478Z,4.53
2023-04-15T05:01:34.555Z,3.65
2023-04-15T05:06:38.570Z,5.05
2023-04-15T05:11:42.575Z,7.25
2023-04-15T05:16:46.526Z,5.50
2023-04-15T05:21:50.566Z,4.57
2023-04-15T05:26:54.609Z,4.57
2023-04-15T05:31:58.740Z,3.08
2023-04-15T05:37:02.814Z,5.28
2023-04-15T05:42:06.937Z,6.60
2023-04-15T05:47:11.068Z,10.00
2023-04-15T05:52:14.932Z,6.53
2023-04-15T05:57:18.832Z,8.38
2023-04-15T06:02:22.959Z,7.32
2023-04-15T06:07:26.910Z,5.38
2023-04-15T06:12:31.088Z,4.82
2023-04-15T06:17:35.015Z,3.80
2023-04-15T06:22:41.979Z,5.53
2023-04-15T06:27:46.107Z,5.85
2023-04-15T06:32:50.108Z,7.65
2023-04-15T06:37:54.027Z,3.20
2023-04-15T06:42:57.900Z,6.47
2023-04-15T06:48:01.940Z,7.35
2023-04-15T06:53:05.978Z,6.95
2023-04-15T06:58:09.906Z,4.57
2023-04-15T07:03:15.252Z,5.38
2023-04-15T07:08:20.511Z,6.75
2023-04-15T07:13:24.547Z,4.63
2023-04-15T07:18:28.406Z,5.95
2023-04-15T07:23:32.372Z,9.48
2023-04-15T07:28:36.318Z,5.45
2023-04-15T07:33:40.214Z,4.15
2023-04-15T07:38:44.235Z,12.32
2023-04-15T07:43:48.926Z,7.65
2023-04-15T07:48:56.112Z,6.68
2023-04-15T07:54:00.125Z,4.95
2023-04-15T07:59:04.905Z,6.53
2023-04-15T08:04:09.224Z,10.90
2023-04-15T08:09:13.965Z,9.57
2023-04-15T08:14:18.001Z,6.85
2023-04-15T08:19:22.144Z,9.82
2023-04-15T08:24:26.467Z,4.57
2023-04-15T08:29:31.117Z,9.00
2023-04-15T08:34:35.509Z,8.02
2023-04-15T08:39:39.496Z,4.93
2023-04-15T08:44:44.818Z,6.70
2023-04-15T08:49:54.007Z,5.18
2023-04-15T08:55:01.884Z,7.18
2023-04-15T09:00:06.719Z,6.75
2023-04-15T09:05:10.717Z,6.05
2023-04-15T09:10:14.623Z,6.78
2023-04-15T09:15:19.042Z,9.60
2023-04-15T09:20:23.888Z,8.13
2023-04-15T09:25:30.083Z,9.48
2023-04-15T09:30:35.343Z,8.38
2023-04-15T09:35:39.383Z,10.75
2023-04-15T09:40:43.335Z,6.90
2023-04-15T09:45:54.345Z,10.25
2023-04-15T09:51:00.490Z,4.72
2023-04-15T09:56:04.769Z,5.95
2023-04-15T10:01:09.373Z,6.93
2023-04-15T10:06:15.159Z,9.38
2023-04-15T10:11:22.738Z,6.32
2023-04-15T10:16:28.888Z,8.48
2023-04-15T10:21:33.708Z,5.68
2023-04-15T10:26:38.490Z,12.10
2023-04-15T10:31:42.843Z,4.55
2023-04-15T10:36:47.453Z,15.13
2023-04-15T10:42:07.191Z,10.45
2023-04-15T10:47:18.721Z,6.00
2023-04-15T10:52:25.981Z,5.88
2023-04-15T10:57:36.402Z,6.63
2023-04-15T11:02:42.100Z,8.50
2023-04-15T11:07:58.775Z,7.78
2023-04-15T11:13:16.090Z,10.60
2023-04-15T11:18:22.428Z,3.78
2023-04-15T11:23:47.547Z,5.95
2023-04-15T11:28:51.825Z,7.47
2023-04-15T11:33:59.165Z,10.55
2023-04-15T11:39:04.977Z,8.35
2023-04-15T11:44:18.972Z,9.55
2023-04-15T11:49:34.085Z,5.65
2023-04-15T11:54:37.600Z,17.83
2023-04-15T11:59:45.738Z,7.07
2023-04-15T12:04:48.940Z,10.57
2023-04-15T12:09:58.245Z,9.70
2023-04-15T12:15:00.808Z,9.45
2023-04-15T12:20:03.766Z,5.35
2023-04-15T12:25:06.870Z,9.20
2023-04-15T12:30:10.884Z,15.07
2023-04-15T12:35:13.634Z,15.32
2023-04-15T12:40:16.294Z,6.10
2023-04-15T12:45:19.223Z,9.60
2023-04-15T12:50:21.878Z,9.55
2023-04-15T12:55:25.257Z,10.82
2023-04-15T13:00:28.233Z,11.70
2023-04-15T13:05:32.321Z,9.98
2023-04-15T13:10:39.171Z,4.85
2023-04-15T13:15:42.318Z,13.05
2023-04-15T13:20:44.966Z,8.65
2023-04-15T13:25:47.688Z,12.38
2023-04-15T13:30:50.586Z,8.90
2023-04-15T13:35:53.375Z,6.25
2023-04-15T13:40:56.222Z,6.90
2023-04-15T13:45:58.943Z,12.00
2023-04-15T13:51:01.590Z,9.38
2023-04-15T13:56:04.770Z,16.95
2023-04-15T14:01:07.636Z,6.63
2023-04-15T14:06:10.598Z,5.63
2023-04-15T14:11:13.413Z,9.15
2023-04-15T14:16:16.405Z,10.18
2023-04-15T14:21:19.245Z,6.68
2023-04-15T14:26:21.819Z,13.00
2023-04-15T14:31:24.424Z,7.82
2023-04-15T14:36:27.715Z,6.65
2023-04-15T14:41:30.571Z,7.50
2023-04-15T14:46:33.716Z,8.77
2023-04-15T14:51:36.411Z,9.63
2023-04-15T14:56:39.016Z,7.85
2023-04-15T15:01:41.717Z,10.77
2023-04-15T15:06:44.422Z,5.93
2023-04-15T15:11:48.326Z,11.40
2023-04-15T15:16:51.199Z,8.52
2023-04-15T15:21:53.843Z,9.20
2023-04-15T15:26:57.391Z,10.13
2023-04-15T15:31:59.995Z,9.88
2023-04-15T15:37:02.664Z,11.55
2023-04-15T15:42:06.765Z,6.72
2023-04-15T15:47:09.539Z,10.82
2023-04-15T15:52:12.573Z,11.10
2023-04-15T15:57:15.216Z,10.52
2023-04-15T16:02:18.204Z,9.00
2023-04-15T16:07:20.847Z,7.40
2023-04-15T16:12:23.599Z,11.63
2023-04-15T16:17:26.280Z,11.50
2023-04-15T16:22:28.864Z,10.73
2023-04-15T16:27:31.486Z,10.65
2023-04-15T16:32:34.247Z,8.68
2023-04-15T16:37:37.285Z,12.55
2023-04-15T16:42:41.235Z,13.27
2023-04-15T16:47:43.956Z,15.80
2023-04-15T16:52:46.707Z,14.05
2023-04-15T16:58:02.401Z,18.35
2023-04-15T17:03:06.684Z,11.90
2023-04-15T17:08:09.892Z,18.80
2023-04-15T17:13:12.838Z,17.90
2023-04-15T17:18:15.594Z,12.90
2023-04-15T17:23:21.183Z,19.98
2023-04-15T17:28:24.419Z,18.10
2023-04-15T17:33:55.870Z,24.67
2023-04-15T17:39:15.774Z,22.77
2023-04-15T17:44:38.393Z,23.92
2023-04-15T17:50:02.094Z,24.67
2023-04-15T17:55:25.865Z,25.10
2023-04-15T18:00:52.396Z,22.35
2023-04-15T18:06:16.663Z,25.83
2023-04-15T18:11:40.142Z,27.73
2023-04-15T18:17:03.288Z,24.92
2023-04-15T18:22:25.957Z,22.13
2023-04-15T18:27:28.648Z,22.92
2023-04-15T18:32:32.862Z,22.98
2023-04-15T18:37:35.947Z,28.63
2023-04-15T18:42:38.770Z,30.85
2023-04-15T18:47:41.837Z,24.63
2023-04-15T18:52:44.964Z,22.90
2023-04-15T18:57:48.596Z,25.98
2023-04-15T19:02:52.223Z,17.92
2023-04-15T19:07:56.630Z,20.95
2023-04-15T19:13:00.791Z,26.10
2023-04-15T19:18:05.401Z,12.90
2023-04-15T19:23:08.309Z,11.80
2023-04-15T19:28:11.051Z,16.38
2023-04-15T19:33:13.725Z,12.00
2023-04-15T19:38:17.208Z,17.08
2023-04-15T19:43:19.952Z,11.02
2023-04-15T19:48:23.295Z,11.32
2023-04-15T19:53:25.971Z,9.55
2023-04-15T19:58:28.605Z,13.30
2023-04-15T20:03:31.499Z,9.35
2023-04-15T20:08:34.232Z,12.55
2023-04-15T20:13:37.116Z,14.63
2023-04-15T20:18:39.788Z,17.83
2023-04-15T20:23:42.574Z,18.23
2023-04-15T20:28:45.362Z,15.07
2023-04-15T20:33:48.073Z,14.45
2023-04-15T20:38:50.617Z,22.70
2023-04-15T20:43:53.180Z,11.95
2023-04-15T20:48:56.236Z,14.05
2023-04-15T20:53:58.837Z,16.48
2023-04-15T20:59:02.397Z,14.30
2023-04-15T21:04:05.176Z,14.43
2023-04-15T21:09:07.904Z,15.82
2023-04-15T21:14:10.574Z,13.02
2023-04-15T21:19:13.354Z,12.85
2023-04-15T21:24:15.999Z,18.27
2023-04-15T21:29:18.900Z,9.80
2023-04-15T21:34:21.708Z,20.08
2023-04-15T21:39:25.128Z,10.77
2023-04-15T21:44:27.753Z,14.27
2023-04-15T21:49:30.406Z,11.80
2023-04-15T21:54:33.517Z,7.97
2023-04-15T21:59:36.391Z,14.45
2023-04-15T22:04:39.268Z,16.75
2023-04-15T22:09:41.966Z,11.27
2023-04-15T22:14:44.578Z,9.82
2023-04-15T22:19:47.546Z,13.70
2023-04-15T22:24:50.115Z,15.80
2023-04-15T22:29:53.337Z,11.63
2023-04-15T22:34:56.106Z,13.55
2023-04-15T22:39:59.000Z,11.40
2023-04-15T22:45:01.703Z,11.35
2023-04-15T22:50:06.747Z,9.07
2023-04-15T22:55:09.461Z,9.63
2023-04-15T23:00:12.610Z,11.82
2023-04-15T23:05:15.253Z,9.32
2023-04-15T23:10:17.910Z,8.48
2023-04-15T23:15:21.654Z,10.02
2023-04-15T23:20:25.003Z,7.65
2023-04-15T23:25:28.207Z,8.57
2023-04-15T23:30:31.273Z,20.40
2023-04-15T23:35:34.231Z,7.32
2023-04-15T23:40:37.099Z,9.00
2023-04-15T23:45:41.371Z,5.45
2023-04-15T23:50:44.252Z,10.63
2023-04-15T23:55:47.072Z,8.05
